createdAt,value
2018-09-09T00:01:53.780Z,14.60
2018-09-09T00:04:22.840Z,14.60
2018-09-09T00:06:51.835Z,14.50
2018-09-09T00:09:25.908Z,14.50
2018-09-09T00:11:55.282Z,14.40
2018-09-09T00:14:24.228Z,14.40
2018-09-09T00:16:53.253Z,14.40
2018-09-09T00:19:22.194Z,14.40
2018-09-09T00:21:51.321Z,14.40
2018-09-09T00:24:20.358Z,14.30
2018-09-09T00:26:49.425Z,14.40
2018-09-09T00:29:18.417Z,14.20
2018-09-09T00:31:47.386Z,14.10
2018-09-09T00:34:16.358Z,14.00
2018-09-09T00:36:45.295Z,13.90
2018-09-09T00:39:14.296Z,13.90
2018-09-09T00:41:43.214Z,13.80
2018-09-09T00:44:12.198Z,13.70
2018-09-09T00:46:41.206Z,13.70
2018-09-09T00:49:15.421Z,13.60
2018-09-09T00:51:49.465Z,13.40
2018-09-09T00:54:18.477Z,13.30
2018-09-09T00:56:47.385Z,13.20
2018-09-09T00:59:16.382Z,13.20
2018-09-09T01:01:45.377Z,13.10
2018-09-09T01:04:14.374Z,13.10
2018-09-09T01:06:43.284Z,13.10
2018-09-09T01:09:12.569Z,13.10
2018-09-09T01:11:41.491Z,13.10
2018-09-09T01:14:10.411Z,13.10
2018-09-09T01:16:39.333Z,13.00
2018-09-09T01:19:08.269Z,13.00
2018-09-09T01:21:37.248Z,12.90
2018-09-09T01:24:06.187Z,12.90
2018-09-09T01:26:35.197Z,12.90
2018-09-09T01:29:04.209Z,13.00
2018-09-09T01:31:33.204Z,12.90
2018-09-09T01:34:02.428Z,12.90
2018-09-09T01:36:31.401Z,12.90
2018-09-09T01:39:00.299Z,12.90
2018-09-09T01:41:29.282Z,12.90
2018-09-09T01:43:58.206Z,12.90
2018-09-09T01:46:27.123Z,12.90
2018-09-09T01:48:56.152Z,12.80
2018-09-09T01:51:25.081Z,12.90
2018-09-09T01:53:54.078Z,12.80
2018-09-09T01:56:23.000Z,12.80
2018-09-09T01:58:51.932Z,12.80
2018-09-09T02:01:20.882Z,12.70
2018-09-09T02:03:49.817Z,12.70
2018-09-09T02:06:18.800Z,12.70
2018-09-09T02:08:47.767Z,12.70
2018-09-09T02:11:16.734Z,12.70
2018-09-09T02:13:45.716Z,12.60
2018-09-09T02:16:14.738Z,12.70
2018-09-09T02:18:43.672Z,12.60
2018-09-09T02:21:12.657Z,12.60
2018-09-09T02:23:41.597Z,12.60
2018-09-09T02:26:10.508Z,12.60
2018-09-09T02:28:39.465Z,12.60
2018-09-09T02:31:08.376Z,12.60
2018-09-09T02:33:37.288Z,12.60
2018-09-09T02:36:06.363Z,12.60
2018-09-09T02:38:35.305Z,12.50
2018-09-09T02:41:04.247Z,12.50
2018-09-09T02:43:33.234Z,12.50
2018-09-09T02:46:02.176Z,12.50
2018-09-09T02:48:31.099Z,12.50
2018-09-09T02:51:00.426Z,12.50
2018-09-09T02:53:29.377Z,12.50
2018-09-09T02:55:58.359Z,12.50
2018-09-09T02:58:27.270Z,12.50
2018-09-09T03:00:56.593Z,12.50
2018-09-09T03:03:25.594Z,12.50
2018-09-09T03:05:54.583Z,12.60
2018-09-09T03:08:23.558Z,12.50
2018-09-09T03:10:57.537Z,12.50
2018-09-09T03:13:26.491Z,12.50
2018-09-09T03:15:55.416Z,12.50
2018-09-09T03:18:24.357Z,12.50
2018-09-09T03:20:53.328Z,12.40
2018-09-09T03:23:22.272Z,12.40
2018-09-09T03:25:51.193Z,12.40
2018-09-09T03:28:20.231Z,12.40
2018-09-09T03:30:49.360Z,12.40
2018-09-09T03:33:18.300Z,12.40
2018-09-09T03:35:47.581Z,12.40
2018-09-09T03:38:16.514Z,12.40
2018-09-09T03:40:45.457Z,12.40
2018-09-09T03:43:14.381Z,12.30
2018-09-09T03:45:43.345Z,12.30
2018-09-09T03:48:12.308Z,12.30
2018-09-09T03:50:41.275Z,12.30
2018-09-09T03:53:10.207Z,12.30
2018-09-09T03:55:39.165Z,12.30
2018-09-09T03:58:08.192Z,12.30
2018-09-09T04:00:37.604Z,12.30
2018-09-09T04:03:06.831Z,12.50
2018-09-09T04:05:35.845Z,12.60
2018-09-09T04:08:04.808Z,12.70
2018-09-09T04:10:33.720Z,12.70
2018-09-09T04:13:02.650Z,12.80
2018-09-09T04:15:31.603Z,12.90
2018-09-09T04:18:00.545Z,12.90
2018-09-09T04:20:29.485Z,13.00
2018-09-09T04:22:58.522Z,13.10
2018-09-09T04:25:27.521Z,13.00
2018-09-09T04:27:56.537Z,13.00
2018-09-09T04:30:25.432Z,13.10
2018-09-09T04:32:54.485Z,13.30
2018-09-09T04:35:23.388Z,13.50
2018-09-09T04:37:52.316Z,13.60
2018-09-09T04:40:21.281Z,13.70
2018-09-09T04:42:50.193Z,13.70
2018-09-09T04:45:19.290Z,13.90
2018-09-09T04:47:48.531Z,13.90
2018-09-09T04:50:17.557Z,14.00
2018-09-09T04:52:46.464Z,14.00
2018-09-09T04:55:15.432Z,14.20
2018-09-09T04:57:44.360Z,14.40
2018-09-09T05:00:13.393Z,14.50
2018-09-09T05:02:42.293Z,14.60
2018-09-09T05:05:11.257Z,14.70
2018-09-09T05:07:40.198Z,14.90
2018-09-09T05:10:09.197Z,15.20
2018-09-09T05:12:38.121Z,15.70
2018-09-09T05:15:07.132Z,16.30
2018-09-09T05:17:36.237Z,16.80
2018-09-09T05:20:05.546Z,17.20
2018-09-09T05:22:34.506Z,17.30
2018-09-09T05:25:03.454Z,17.50
2018-09-09T05:27:32.509Z,17.60
2018-09-09T05:30:01.459Z,17.80
2018-09-09T05:32:30.458Z,18.30
2018-09-09T05:34:59.428Z,18.50
2018-09-09T05:37:28.364Z,18.20
2018-09-09T05:39:57.311Z,17.70
2018-09-09T05:42:26.473Z,17.30
2018-09-09T05:44:55.337Z,17.10
2018-09-09T05:47:24.310Z,17.20
2018-09-09T05:49:53.265Z,17.10
2018-09-09T05:52:22.186Z,17.20
2018-09-09T05:54:51.249Z,17.10
2018-09-09T05:57:20.268Z,17.20
2018-09-09T05:59:49.230Z,17.30
2018-09-09T06:02:18.186Z,17.30
2018-09-09T06:04:47.164Z,17.30
2018-09-09T06:07:16.169Z,17.50
2018-09-09T06:09:45.178Z,17.50
2018-09-09T06:12:14.095Z,17.80
2018-09-09T06:14:43.019Z,17.80
2018-09-09T06:17:12.015Z,17.80
2018-09-09T06:19:40.943Z,18.10
2018-09-09T06:22:10.004Z,19.20
2018-09-09T06:24:38.932Z,20.80
2018-09-09T06:27:07.966Z,21.60
2018-09-09T06:29:36.872Z,22.30
2018-09-09T06:32:05.869Z,21.50
2018-09-09T06:34:34.824Z,21.10
2018-09-09T06:37:03.834Z,21.60
2018-09-09T06:39:32.736Z,21.90
2018-09-09T06:42:01.758Z,23.30
2018-09-09T06:44:30.670Z,25.00
2018-09-09T06:46:59.733Z,25.50
2018-09-09T06:49:29.354Z,25.30
2018-09-09T06:51:58.308Z,24.50
2018-09-09T06:54:27.277Z,23.80
2018-09-09T06:56:56.193Z,23.20
2018-09-09T06:59:25.158Z,23.00
2018-09-09T07:01:54.340Z,24.10
2018-09-09T07:04:23.301Z,26.80
2018-09-09T07:06:52.323Z,29.40
2018-09-09T07:09:22.066Z,31.10
2018-09-09T07:11:51.167Z,30.70
2018-09-09T07:14:20.005Z,29.50
2018-09-09T07:16:48.934Z,29.10
2018-09-09T07:19:17.898Z,31.20
2018-09-09T07:21:46.905Z,33.70
2018-09-09T07:24:15.873Z,34.10
2018-09-09T07:26:44.852Z,34.50
2018-09-09T07:29:13.778Z,34.90
2018-09-09T07:31:42.748Z,34.20
2018-09-09T07:34:11.794Z,33.80
2018-09-09T07:36:40.804Z,34.70
2018-09-09T07:39:09.790Z,35.60
2018-09-09T07:41:38.797Z,37.00
2018-09-09T07:44:07.928Z,38.70
2018-09-09T07:46:36.937Z,39.50
2018-09-09T07:49:06.254Z,39.30
2018-09-09T07:51:35.391Z,38.30
2018-09-09T07:54:04.373Z,38.50
2018-09-09T07:56:33.374Z,39.40
2018-09-09T07:59:02.416Z,38.60
2018-09-09T08:01:31.349Z,36.30
2018-09-09T08:04:00.332Z,33.50
2018-09-09T08:06:29.292Z,30.50
2018-09-09T08:08:58.275Z,29.20
2018-09-09T08:11:31.355Z,28.90
2018-09-09T08:14:00.360Z,29.20
2018-09-09T08:16:29.316Z,30.20
2018-09-09T08:18:58.286Z,30.50
2018-09-09T08:21:27.269Z,31.90
2018-09-09T08:23:56.285Z,33.50
2018-09-09T08:26:25.348Z,34.80
2018-09-09T08:28:54.292Z,33.60
2018-09-09T08:31:23.776Z,32.00
2018-09-09T08:33:52.812Z,31.50
2018-09-09T08:36:21.811Z,31.10
2018-09-09T08:38:50.749Z,30.70
2018-09-09T08:41:19.714Z,30.50
2018-09-09T08:43:48.653Z,30.50
2018-09-09T08:46:17.649Z,31.90
2018-09-09T08:48:46.581Z,33.70
2018-09-09T08:51:15.515Z,33.00
2018-09-09T08:53:44.451Z,32.30
2018-09-09T08:56:13.400Z,31.90
2018-09-09T08:58:42.340Z,31.40
2018-09-09T09:01:11.269Z,31.70
2018-09-09T09:03:40.226Z,31.70
2018-09-09T09:06:09.157Z,30.90
2018-09-09T09:08:38.201Z,31.00
2018-09-09T09:11:07.184Z,30.60
2018-09-09T09:13:36.216Z,30.20
2018-09-09T09:16:05.194Z,30.30
2018-09-09T09:18:34.236Z,29.70
2018-09-09T09:21:03.217Z,29.20
2018-09-09T09:23:32.188Z,28.90
2018-09-09T09:26:01.119Z,29.00
2018-09-09T09:28:30.029Z,29.80
2018-09-09T09:30:58.979Z,30.50
2018-09-09T09:33:27.893Z,30.20
2018-09-09T09:35:56.885Z,29.90
2018-09-09T09:38:25.852Z,29.80
2018-09-09T09:40:54.811Z,30.30
2018-09-09T09:43:23.734Z,30.60
2018-09-09T09:45:52.749Z,29.70
2018-09-09T09:48:21.684Z,29.50
2018-09-09T09:50:50.626Z,28.90
2018-09-09T09:53:19.707Z,28.60
2018-09-09T09:55:48.573Z,28.40
2018-09-09T09:58:17.498Z,28.60
2018-09-09T10:00:51.582Z,28.30
2018-09-09T10:03:20.570Z,28.70
2018-09-09T10:05:49.488Z,29.00
2018-09-09T10:08:18.643Z,29.30
2018-09-09T10:10:47.544Z,29.40
2018-09-09T10:13:16.503Z,29.30
2018-09-09T10:15:45.418Z,29.60
2018-09-09T10:18:14.679Z,29.80
2018-09-09T10:20:43.709Z,29.80
2018-09-09T10:23:12.636Z,29.80
2018-09-09T10:25:41.636Z,29.80
2018-09-09T10:28:10.601Z,29.50
2018-09-09T10:30:39.549Z,28.60
2018-09-09T10:33:23.161Z,28.40
2018-09-09T10:35:52.101Z,28.80
2018-09-09T10:38:21.084Z,29.00
2018-09-09T10:40:50.120Z,29.10
2018-09-09T10:43:19.131Z,29.50
2018-09-09T10:45:48.067Z,29.30
2018-09-09T10:48:17.016Z,29.30
2018-09-09T10:50:46.035Z,29.10
2018-09-09T10:53:15.011Z,29.20
2018-09-09T10:55:45.337Z,29.40
2018-09-09T10:58:14.276Z,28.90
2018-09-09T11:00:43.256Z,29.30
2018-09-09T11:03:12.217Z,29.40
2018-09-09T11:05:41.423Z,29.40
2018-09-09T11:08:13.817Z,29.30
2018-09-09T11:10:42.857Z,29.10
2018-09-09T11:13:11.812Z,28.90
2018-09-09T11:15:40.725Z,29.10
2018-09-09T11:18:09.845Z,28.90
2018-09-09T11:20:38.791Z,28.50
2018-09-09T11:23:07.728Z,28.20
2018-09-09T11:25:36.681Z,28.10
2018-09-09T11:28:05.956Z,27.80
2018-09-09T11:30:34.924Z,27.40
2018-09-09T11:33:03.855Z,27.50
2018-09-09T11:35:32.940Z,27.50
2018-09-09T11:38:01.874Z,26.90
2018-09-09T11:40:30.852Z,26.50
2018-09-09T11:42:59.795Z,26.20
2018-09-09T11:45:28.778Z,26.00
2018-09-09T11:47:58.441Z,25.70
2018-09-09T11:50:27.466Z,25.50
2018-09-09T11:52:56.400Z,25.60
2018-09-09T11:55:25.350Z,25.80
2018-09-09T11:57:54.449Z,26.20
2018-09-09T12:00:23.377Z,26.70
2018-09-09T12:02:52.366Z,27.40
2018-09-09T12:05:21.331Z,28.20
2018-09-09T12:07:50.280Z,28.60
2018-09-09T12:10:19.373Z,29.00
2018-09-09T12:12:48.305Z,29.10
2018-09-09T12:15:17.272Z,29.20
2018-09-09T12:17:46.268Z,29.20
2018-09-09T12:20:15.184Z,28.90
2018-09-09T12:22:44.183Z,28.60
2018-09-09T12:25:13.133Z,28.30
2018-09-09T12:27:42.057Z,28.00
2018-09-09T12:30:11.033Z,27.40
2018-09-09T12:32:40.014Z,26.90
2018-09-09T12:35:09.032Z,26.80
2018-09-09T12:37:37.978Z,26.60
2018-09-09T12:40:07.057Z,26.90
2018-09-09T12:42:36.015Z,27.30
2018-09-09T12:45:10.348Z,27.40
2018-09-09T12:47:44.600Z,27.50
2018-09-09T12:50:13.579Z,27.70
2018-09-09T12:52:42.518Z,27.80
2018-09-09T12:55:11.505Z,27.80
2018-09-09T12:57:40.419Z,27.50
2018-09-09T13:00:09.859Z,27.10
2018-09-09T13:02:38.859Z,27.10
2018-09-09T13:05:07.842Z,27.10
2018-09-09T13:07:36.784Z,27.20
2018-09-09T13:10:05.773Z,27.10
2018-09-09T13:12:39.839Z,27.20
2018-09-09T13:15:08.825Z,27.10
2018-09-09T13:17:37.773Z,26.90
2018-09-09T13:20:06.779Z,26.70
2018-09-09T13:22:35.885Z,26.70
2018-09-09T13:25:04.949Z,26.70
2018-09-09T13:27:33.949Z,26.80
2018-09-09T13:30:02.869Z,26.80
2018-09-09T13:32:31.804Z,26.90
2018-09-09T13:35:00.766Z,27.10
2018-09-09T13:37:29.933Z,27.10
2018-09-09T13:39:58.902Z,26.80
2018-09-09T13:42:27.874Z,26.90
2018-09-09T13:44:56.833Z,27.20
2018-09-09T13:47:25.854Z,27.20
2018-09-09T13:49:54.855Z,27.10
2018-09-09T13:52:23.805Z,27.10
2018-09-09T13:54:52.737Z,27.00
2018-09-09T13:57:21.657Z,26.90
2018-09-09T13:59:50.640Z,26.60
2018-09-09T14:02:19.588Z,26.60
2018-09-09T14:04:48.503Z,26.50
2018-09-09T14:07:17.577Z,26.50
2018-09-09T14:09:46.545Z,26.50
2018-09-09T14:12:15.613Z,26.50
2018-09-09T14:14:44.552Z,26.60
2018-09-09T14:17:13.579Z,26.50
2018-09-09T14:19:42.707Z,26.60
2018-09-09T14:22:11.774Z,26.70
2018-09-09T14:24:40.758Z,26.80
2018-09-09T14:27:09.724Z,26.80
2018-09-09T14:29:38.624Z,26.80
2018-09-09T14:32:07.617Z,26.90
2018-09-09T14:34:36.534Z,26.70
2018-09-09T14:37:05.464Z,26.50
2018-09-09T14:39:34.421Z,26.50
2018-09-09T14:42:03.325Z,26.40
2018-09-09T14:44:32.286Z,26.20
2018-09-09T14:47:01.194Z,26.20
2018-09-09T14:49:30.157Z,26.20
2018-09-09T14:51:59.068Z,26.00
2018-09-09T14:54:28.033Z,26.00
2018-09-09T14:56:56.933Z,26.00
2018-09-09T14:59:25.906Z,25.90
2018-09-09T15:01:54.849Z,25.80
2018-09-09T15:04:23.841Z,25.80
2018-09-09T15:06:52.839Z,25.90
2018-09-09T15:09:21.777Z,25.90
2018-09-09T15:11:50.743Z,26.00
2018-09-09T15:14:19.760Z,26.10
2018-09-09T15:16:48.725Z,26.00
2018-09-09T15:19:17.702Z,25.90
2018-09-09T15:21:46.676Z,25.90
2018-09-09T15:24:15.590Z,25.80
2018-09-09T15:26:44.585Z,25.80
2018-09-09T15:29:28.132Z,25.40
2018-09-09T15:31:57.108Z,25.10
2018-09-09T15:34:26.053Z,25.00
2018-09-09T15:36:55.006Z,25.00
2018-09-09T15:39:24.003Z,25.00
2018-09-09T15:41:52.985Z,25.00
2018-09-09T15:44:21.971Z,24.80
2018-09-09T15:46:50.948Z,24.70
2018-09-09T15:49:19.904Z,24.60
2018-09-09T15:51:48.860Z,24.50
2018-09-09T15:54:17.895Z,24.30
2018-09-09T15:56:46.902Z,24.20
2018-09-09T15:59:15.855Z,24.20
2018-09-09T16:01:44.766Z,24.10
2018-09-09T16:04:13.734Z,24.10
2018-09-09T16:06:42.671Z,24.00
2018-09-09T16:09:12.142Z,24.00
2018-09-09T16:11:41.128Z,24.00
2018-09-09T16:14:10.067Z,24.00
2018-09-09T16:16:39.289Z,23.90
2018-09-09T16:19:08.214Z,23.90
2018-09-09T16:21:37.180Z,24.00
2018-09-09T16:24:06.093Z,23.90
2018-09-09T16:26:35.040Z,24.00
2018-09-09T16:29:04.005Z,24.00
2018-09-09T16:31:32.949Z,24.10
2018-09-09T16:34:02.029Z,24.10
2018-09-09T16:36:30.973Z,24.10
2018-09-09T16:39:00.681Z,24.20
2018-09-09T16:41:30.544Z,24.30
2018-09-09T16:43:59.457Z,24.20
2018-09-09T16:46:28.384Z,24.30
2018-09-09T16:48:57.384Z,24.20
2018-09-09T16:51:26.346Z,24.10
2018-09-09T16:53:55.276Z,24.00
2018-09-09T16:56:24.205Z,23.90
2018-09-09T16:58:53.178Z,23.80
2018-09-09T17:01:22.202Z,23.70
2018-09-09T17:03:51.116Z,23.60
2018-09-09T17:06:20.118Z,23.50
2018-09-09T17:08:49.097Z,23.40
2018-09-09T17:11:18.076Z,23.30
2018-09-09T17:13:47.057Z,23.30
2018-09-09T17:16:16.421Z,23.20
2018-09-09T17:18:45.399Z,23.10
2018-09-09T17:21:14.359Z,23.10
2018-09-09T17:23:43.250Z,22.90
2018-09-09T17:26:12.216Z,22.80
2018-09-09T17:28:41.124Z,22.70
2018-09-09T17:31:10.062Z,22.60
2018-09-09T17:33:38.981Z,22.60
2018-09-09T17:36:07.927Z,22.50
2018-09-09T17:38:37.522Z,22.40
2018-09-09T17:41:06.510Z,22.30
2018-09-09T17:43:35.444Z,22.30
2018-09-09T17:46:04.424Z,22.20
2018-09-09T17:48:33.449Z,22.20
2018-09-09T17:51:02.449Z,22.20
2018-09-09T17:53:31.395Z,22.20
2018-09-09T17:56:00.676Z,22.10
2018-09-09T17:58:29.623Z,22.00
2018-09-09T18:00:58.627Z,21.90
2018-09-09T18:03:27.600Z,21.90
2018-09-09T18:05:56.535Z,21.80
2018-09-09T18:08:25.494Z,21.90
2018-09-09T18:10:54.487Z,21.90
2018-09-09T18:13:23.454Z,21.90
2018-09-09T18:15:52.522Z,21.80
2018-09-09T18:18:21.460Z,21.80
2018-09-09T18:20:50.559Z,21.70
2018-09-09T18:23:19.441Z,21.50
2018-09-09T18:25:48.378Z,21.50
2018-09-09T18:28:17.392Z,21.40
2018-09-09T18:30:46.319Z,21.40
2018-09-09T18:33:15.330Z,21.40
2018-09-09T18:35:44.928Z,21.30
2018-09-09T18:38:14.014Z,21.30
2018-09-09T18:40:42.990Z,21.10
2018-09-09T18:43:11.969Z,21.00
2018-09-09T18:45:40.888Z,20.90
2018-09-09T18:48:09.925Z,20.80
2018-09-09T18:50:38.846Z,20.70
2018-09-09T18:53:07.817Z,20.60
2018-09-09T18:55:36.763Z,20.50
2018-09-09T18:58:05.706Z,20.50
2018-09-09T19:00:34.666Z,20.50
2018-09-09T19:03:03.607Z,20.30
2018-09-09T19:05:32.575Z,20.30
2018-09-09T19:08:01.560Z,20.20
2018-09-09T19:10:30.502Z,20.10
2018-09-09T19:12:59.449Z,20.00
2018-09-09T19:15:28.429Z,20.00
2018-09-09T19:17:57.328Z,19.90
2018-09-09T19:20:26.352Z,19.80
2018-09-09T19:22:55.255Z,19.70
2018-09-09T19:25:24.180Z,19.70
2018-09-09T19:27:53.159Z,19.70
2018-09-09T19:30:22.094Z,19.60
2018-09-09T19:32:51.083Z,19.60
2018-09-09T19:35:20.053Z,19.50
2018-09-09T19:37:49.014Z,19.50
2018-09-09T19:40:17.937Z,19.40
2018-09-09T19:42:46.933Z,19.20
2018-09-09T19:45:15.946Z,19.10
2018-09-09T19:47:44.962Z,19.00
2018-09-09T19:50:13.951Z,18.80
2018-09-09T19:52:42.904Z,18.80
2018-09-09T19:55:11.968Z,18.60
2018-09-09T19:57:40.946Z,18.50
2018-09-09T20:00:09.957Z,18.50
2018-09-09T20:02:38.887Z,18.40
2018-09-09T20:05:07.852Z,18.30
2018-09-09T20:07:36.767Z,18.20
2018-09-09T20:10:06.085Z,18.20
2018-09-09T20:12:34.995Z,18.10
2018-09-09T20:15:03.961Z,18.00
2018-09-09T20:17:32.966Z,17.90
2018-09-09T20:20:01.930Z,17.80
2018-09-09T20:22:30.849Z,17.80
2018-09-09T20:24:59.824Z,17.80
2018-09-09T20:27:28.757Z,17.90
2018-09-09T20:29:57.661Z,17.80
2018-09-09T20:32:26.676Z,17.90
2018-09-09T20:34:56.469Z,17.90
2018-09-09T20:37:25.418Z,17.90
2018-09-09T20:39:54.349Z,17.90
2018-09-09T20:42:23.334Z,18.00
2018-09-09T20:44:52.236Z,18.00
2018-09-09T20:47:21.213Z,18.10
2018-09-09T20:49:50.169Z,18.10
2018-09-09T20:52:19.249Z,18.00
2018-09-09T20:54:48.178Z,18.00
2018-09-09T20:57:17.121Z,17.90
2018-09-09T20:59:46.081Z,17.80
2018-09-09T21:02:15.362Z,17.70
2018-09-09T21:04:44.427Z,17.70
2018-09-09T21:07:13.385Z,17.60
2018-09-09T21:09:42.512Z,17.60
2018-09-09T21:12:11.452Z,17.50
2018-09-09T21:14:40.398Z,17.40
2018-09-09T21:17:09.361Z,17.30
2018-09-09T21:19:38.353Z,17.20
2018-09-09T21:22:07.311Z,17.20
2018-09-09T21:24:36.228Z,17.20
2018-09-09T21:27:05.526Z,17.20
2018-09-09T21:29:34.494Z,17.10
2018-09-09T21:32:03.467Z,17.00
2018-09-09T21:34:32.403Z,16.90
2018-09-09T21:37:01.402Z,16.80
2018-09-09T21:39:30.317Z,16.80
2018-09-09T21:41:59.248Z,16.70
2018-09-09T21:44:28.193Z,16.70
2018-09-09T21:46:57.124Z,16.70
2018-09-09T21:49:26.045Z,16.70
2018-09-09T21:51:54.994Z,16.60
2018-09-09T21:54:23.990Z,16.60
2018-09-09T21:56:52.994Z,16.60
2018-09-09T21:59:21.917Z,16.50
2018-09-09T22:01:56.249Z,16.50
2018-09-09T22:04:25.156Z,16.40
2018-09-09T22:06:54.088Z,16.30
2018-09-09T22:09:23.037Z,16.30
2018-09-09T22:11:51.947Z,16.20
2018-09-09T22:14:21.078Z,16.10
2018-09-09T22:16:50.043Z,16.10
2018-09-09T22:19:19.044Z,16.10
2018-09-09T22:21:48.858Z,16.10
2018-09-09T22:24:19.573Z,16.10
2018-09-09T22:26:48.586Z,16.00
2018-09-09T22:29:17.707Z,16.00
2018-09-09T22:31:46.674Z,15.90
2018-09-09T22:34:15.896Z,15.90
2018-09-09T22:36:44.867Z,15.80
2018-09-09T22:39:13.844Z,15.80
2018-09-09T22:41:43.188Z,15.80
2018-09-09T22:44:13.100Z,15.70
2018-09-09T22:46:42.707Z,15.70
2018-09-09T22:49:11.625Z,15.60
2018-09-09T22:51:40.561Z,15.60
2018-09-09T22:54:09.484Z,15.60
2018-09-09T22:56:38.496Z,15.60
2018-09-09T22:59:07.483Z,15.60
2018-09-09T23:01:36.407Z,15.50
2018-09-09T23:04:05.423Z,15.60
2018-09-09T23:06:34.368Z,15.60
2018-09-09T23:09:04.504Z,15.50
2018-09-09T23:11:33.795Z,15.50
2018-09-09T23:14:02.738Z,15.40
2018-09-09T23:16:31.668Z,15.40
2018-09-09T23:19:00.648Z,15.40
2018-09-09T23:21:29.573Z,15.30
2018-09-09T23:23:58.710Z,15.20
2018-09-09T23:26:27.679Z,15.20
2018-09-09T23:28:56.707Z,15.10
2018-09-09T23:31:25.615Z,15.10
2018-09-09T23:33:54.589Z,15.10
2018-09-09T23:36:23.534Z,15.10
2018-09-09T23:38:52.452Z,15.10
2018-09-09T23:41:21.400Z,15.20
2018-09-09T23:43:50.300Z,15.10
2018-09-09T23:46:19.383Z,15.10
2018-09-09T23:48:48.320Z,15.20
2018-09-09T23:51:17.346Z,15.10
2018-09-09T23:53:46.252Z,15.10
2018-09-09T23:56:15.262Z,15.10
2018-09-09T23:58:44.192Z,15.10
